Time;durP1;ratioP1;P1;durP2;ratioP2;P2;SDS_P1;SDS_P2;PMS_P1;PMS_P2;Temp;Humidity;BMP_temperature;BMP_pressure;BME280_temperature;BME280_humidity;BME280_pressure;Samples;Min_cycle;Max_cycle;Signal;HPM_P1;HPM_P2
2023/03/17 00:01:11;;;;;;;366.13;350.42;;;1.50;91.40;;;;;;5109822;28;20115;-77
2023/03/17 00:03:40;;;;;;;393.20;376.35;;;1.50;91.60;;;;;;5111355;28;20398;-74
2023/03/17 00:06:14;;;;;;;377.85;360.77;;;1.40;91.60;;;;;;5090725;28;20051;-74
2023/03/17 00:08:41;;;;;;;344.52;329.63;;;1.30;91.60;;;;;;5111064;28;20016;-75
2023/03/17 00:11:15;;;;;;;359.92;344.88;;;1.40;91.80;;;;;;5109829;28;20011;-76
2023/03/17 00:13:42;;;;;;;296.08;283.98;;;1.30;91.70;;;;;;5110648;28;20035;-75
2023/03/17 00:16:19;;;;;;;341.95;327.67;;;1.40;91.90;;;;;;5111795;28;20036;-75
2023/03/17 00:18:45;;;;;;;353.15;338.05;;;1.40;91.80;;;;;;5111255;28;20053;-75
2023/03/17 00:35:00;;;;;;;231.38;222.43;;;1.20;92.00;;;;;;5101524;28;20116;-75
2023/03/17 00:37:25;;;;;;;383.70;366.73;;;1.10;92.10;;;;;;5112557;27;20023;-75
2023/03/17 00:39:51;;;;;;;388.73;371.63;;;1.10;92.10;;;;;;5095277;28;20039;-74
2023/03/17 00:42:16;;;;;;;436.85;417.17;;;1.10;92.30;;;;;;5113381;27;20024;-74
2023/03/17 00:44:42;;;;;;;400.33;382.73;;;1.10;92.20;;;;;;5111530;27;20126;-74
2023/03/17 00:47:10;;;;;;;449.45;429.30;;;1.10;92.30;;;;;;5111897;28;20039;-74
2023/03/17 00:49:36;;;;;;;496.92;473.00;;;1.10;92.30;;;;;;5111708;27;20024;-74
2023/03/17 00:52:01;;;;;;;500.08;476.10;;;1.00;92.40;;;;;;5076571;28;20096;-75
2023/03/17 00:54:27;;;;;;;460.40;438.70;;;1.00;92.40;;;;;;5114446;27;20027;-74
2023/03/17 00:56:53;;;;;;;507.38;483.27;;;1.00;92.50;;;;;;5110642;27;20035;-73
2023/03/17 00:59:24;;;;;;;522.88;497.52;;;1.10;92.60;;;;;;5090137;27;20035;-74
2023/03/17 01:01:50;;;;;;;436.65;416.52;;;1.00;92.40;;;;;;5106710;27;20579;-74
2023/03/17 01:04:16;;;;;;;473.58;451.50;;;1.10;92.50;;;;;;5092961;28;20039;-74
2023/03/17 01:06:42;;;;;;;442.67;422.73;;;1.10;92.40;;;;;;5108664;28;20027;-74
2023/03/17 01:09:13;;;;;;;452.33;431.23;;;1.10;92.20;;;;;;5111691;27;20031;-74
2023/03/17 01:11:39;;;;;;;444.25;424.48;;;1.00;92.20;;;;;;5108876;28;20058;-74
2023/03/17 01:14:04;;;;;;;420.70;402.10;;;1.10;92.20;;;;;;5089561;28;20423;-75
2023/03/17 01:16:30;;;;;;;382.88;366.48;;;1.10;92.10;;;;;;5110640;27;20042;-74
2023/03/17 01:18:56;;;;;;;430.45;410.60;;;1.10;92.10;;;;;;5111714;27;20028;-74
2023/03/17 01:21:22;;;;;;;462.77;441.80;;;1.10;92.20;;;;;;5070804;27;20435;-74
2023/03/17 01:23:48;;;;;;;487.52;465.30;;;1.10;92.20;;;;;;5113227;27;20027;-74
2023/03/17 01:26:13;;;;;;;463.50;442.02;;;1.00;92.30;;;;;;5111331;27;20020;-76
2023/03/17 01:28:39;;;;;;;347.83;332.88;;;1.10;92.10;;;;;;5094691;28;20031;-75
2023/03/17 01:31:04;;;;;;;419.23;400.65;;;1.10;92.10;;;;;;5110581;27;20431;-75
2023/03/17 01:33:30;;;;;;;338.05;323.70;;;1.10;92.10;;;;;;5110066;28;20035;-76
2023/03/17 01:35:56;;;;;;;301.13;288.77;;;1.10;92.00;;;;;;5111423;28;20047;-74
2023/03/17 01:38:22;;;;;;;281.85;270.13;;;1.10;92.10;;;;;;5109704;27;20040;-74
2023/03/17 01:40:50;;;;;;;339.15;324.50;;;1.00;92.20;;;;;;5110666;28;20027;-74
2023/03/17 01:43:29;;;;;;;338.17;324.00;;;1.10;92.30;;;;;;5116906;27;20054;-74
2023/03/17 01:46:12;;;;;;;365.45;348.85;;;1.00;92.40;;;;;;5113346;27;20489;-74
2023/03/17 01:48:43;;;;;;;399.38;381.00;;;1.00;92.50;;;;;;5094943;28;20032;-75
2023/03/17 01:51:16;;;;;;;506.48;481.80;;;0.90;92.70;;;;;;5113089;27;20028;-74
2023/03/17 01:53:44;;;;;;;534.03;508.83;;;0.90;92.70;;;;;;5094819;28;20028;-74
2023/03/17 01:56:11;;;;;;;406.92;388.08;;;0.80;92.80;;;;;;5107909;27;20019;-74
2023/03/17 01:58:38;;;;;;;430.88;410.23;;;0.90;92.80;;;;;;5091355;28;20035;-75
2023/03/17 02:01:04;;;;;;;500.10;476.38;;;0.90;93.00;;;;;;5077259;28;20508;-74
2023/03/17 02:03:30;;;;;;;503.90;479.92;;;1.00;92.90;;;;;;5110788;27;20488;-74
2023/03/17 02:05:57;;;;;;;549.28;522.67;;;1.00;92.90;;;;;;5112684;27;20034;-75
2023/03/17 02:08:25;;;;;;;537.95;512.20;;;1.10;92.70;;;;;;5111570;27;20020;-74
2023/03/17 02:10:51;;;;;;;568.58;540.92;;;1.10;92.70;;;;;;5095113;27;20035;-74
2023/03/17 02:13:17;;;;;;;543.75;517.47;;;1.00;92.60;;;;;;5091338;27;20031;-74
2023/03/17 02:15:48;;;;;;;553.78;527.58;;;1.00;92.70;;;;;;5093937;28;20433;-75
2023/03/17 02:18:17;;;;;;;558.72;532.15;;;1.00;93.10;;;;;;5109159;27;20028;-74
2023/03/17 02:20:45;;;;;;;572.90;545.50;;;1.10;92.80;;;;;;5093075;28;20038;-74
2023/03/17 02:23:15;;;;;;;532.33;506.80;;;1.20;92.60;;;;;;5107078;27;20035;-74
2023/03/17 02:25:44;;;;;;;574.13;546.60;;;1.20;92.50;;;;;;5106212;28;20479;-74
2023/03/17 02:28:15;;;;;;;559.60;532.97;;;1.20;92.40;;;;;;5110452;27;20104;-74
2023/03/17 02:30:42;;;;;;;497.70;473.83;;;1.10;92.30;;;;;;5108212;28;20544;-74
2023/03/17 02:33:08;;;;;;;525.65;500.95;;;1.10;92.50;;;;;;5106935;28;20040;-74
2023/03/17 02:35:35;;;;;;;549.90;524.17;;;1.10;92.50;;;;;;5095079;28;20050;-74
2023/03/17 02:38:01;;;;;;;568.55;541.10;;;1.00;92.70;;;;;;5088596;28;20029;-75
2023/03/17 02:40:27;;;;;;;514.63;490.00;;;1.00;92.50;;;;;;5103752;27;20118;-74
2023/03/17 02:42:53;;;;;;;469.13;447.27;;;1.00;92.70;;;;;;5108285;27;20035;-75
2023/03/17 02:45:19;;;;;;;472.60;449.55;;;1.00;92.70;;;;;;5106597;27;20073;-75
2023/03/17 02:47:46;;;;;;;486.55;463.52;;;1.00;92.70;;;;;;5096887;28;20175;-75
2023/03/17 02:50:20;;;;;;;573.33;546.47;;;1.00;93.20;;;;;;5107189;27;20015;-74
2023/03/17 02:52:45;;;;;;;523.58;499.02;;;1.10;93.00;;;;;;5107936;28;20077;-74
2023/03/17 02:55:11;;;;;;;574.05;547.13;;;1.10;93.00;;;;;;5083170;27;20032;-74
2023/03/17 02:57:36;;;;;;;603.65;574.53;;;1.10;93.00;;;;;;5109145;27;20061;-74
2023/03/17 03:00:02;;;;;;;601.47;573.10;;;1.10;92.90;;;;;;5087167;28;20028;-74
2023/03/17 03:02:28;;;;;;;592.35;564.60;;;1.20;92.80;;;;;;5095631;27;20396;-74
2023/03/17 03:04:55;;;;;;;594.05;565.70;;;1.10;92.60;;;;;;5093496;28;20083;-74
2023/03/17 03:07:21;;;;;;;583.10;556.13;;;1.00;92.60;;;;;;5091657;28;20023;-74
2023/03/17 03:09:47;;;;;;;588.67;560.63;;;1.00;92.60;;;;;;5103865;28;20102;-74
2023/03/17 03:12:13;;;;;;;583.42;555.45;;;1.00;92.80;;;;;;5109977;27;20107;-74
2023/03/17 03:14:38;;;;;;;576.08;548.97;;;1.00;92.90;;;;;;5114312;27;20478;-74
2023/03/17 03:17:04;;;;;;;572.80;545.78;;;1.00;92.80;;;;;;5093522;28;20028;-74
2023/03/17 03:19:30;;;;;;;570.55;543.72;;;1.00;92.90;;;;;;5092959;28;20043;-74
2023/03/17 03:21:55;;;;;;;619.08;589.28;;;1.10;92.80;;;;;;5079864;28;20028;-74
2023/03/17 03:24:21;;;;;;;570.00;543.78;;;1.10;92.60;;;;;;5107844;28;20507;-74
2023/03/17 03:26:47;;;;;;;597.65;569.50;;;0.90;92.50;;;;;;5110326;28;20024;-74
2023/03/17 03:29:12;;;;;;;502.52;479.58;;;0.90;92.60;;;;;;5092377;28;20481;-73
2023/03/17 03:31:38;;;;;;;545.35;519.90;;;0.90;92.80;;;;;;5079284;28;20035;-74
2023/03/17 03:34:04;;;;;;;509.25;485.95;;;0.90;93.00;;;;;;5105530;28;20020;-74
2023/03/17 03:36:30;;;;;;;575.47;549.97;;;0.90;93.00;;;;;;5084274;28;20149;-74
2023/03/17 03:38:56;;;;;;;558.25;533.08;;;0.90;92.90;;;;;;5094936;28;20094;-74
2023/03/17 03:41:22;;;;;;;578.60;552.65;;;0.80;93.00;;;;;;5107570;28;20134;-74
2023/03/17 03:43:47;;;;;;;563.63;538.45;;;0.70;93.00;;;;;;5109386;28;20534;-74
2023/03/17 03:46:14;;;;;;;569.22;543.70;;;0.70;92.90;;;;;;5101427;28;20103;-74
2023/03/17 03:48:40;;;;;;;574.55;548.72;;;0.70;92.90;;;;;;5097652;28;20061;-74
2023/03/17 03:51:05;;;;;;;599.08;572.05;;;0.60;92.90;;;;;;5108191;28;20055;-74
2023/03/17 03:53:31;;;;;;;583.13;557.05;;;0.60;93.10;;;;;;5111430;28;20032;-74
2023/03/17 03:55:57;;;;;;;597.42;570.22;;;0.70;93.10;;;;;;5102758;28;20024;-74
2023/03/17 03:58:22;;;;;;;591.60;565.05;;;0.60;93.00;;;;;;5093261;28;20028;-74
2023/03/17 04:00:49;;;;;;;574.53;548.50;;;0.60;93.00;;;;;;5092250;28;20040;-74
2023/03/17 04:03:15;;;;;;;594.70;567.25;;;0.60;93.10;;;;;;5111271;27;20028;-74
2023/03/17 04:05:41;;;;;;;615.83;587.08;;;0.70;93.20;;;;;;5110096;27;20039;-74
2023/03/17 04:08:06;;;;;;;605.42;577.28;;;0.50;93.00;;;;;;5084614;28;20040;-74
2023/03/17 04:10:32;;;;;;;619.58;590.65;;;0.60;93.00;;;;;;5098447;27;20031;-74
2023/03/17 04:12:58;;;;;;;607.83;578.92;;;0.60;93.10;;;;;;5109568;27;20104;-74
2023/03/17 04:15:24;;;;;;;603.55;574.80;;;0.60;93.10;;;;;;5091966;28;20032;-74
2023/03/17 04:17:50;;;;;;;593.40;565.42;;;0.50;92.90;;;;;;5097952;28;20088;-75
2023/03/17 04:20:17;;;;;;;591.08;562.42;;;0.60;93.00;;;;;;5103233;28;20026;-73
2023/03/17 04:22:43;;;;;;;548.05;522.22;;;0.70;93.10;;;;;;5107517;27;20031;-74
2023/03/17 04:25:12;;;;;;;572.55;544.75;;;0.80;93.10;;;;;;5088377;28;20389;-74
2023/03/17 04:27:38;;;;;;;403.08;385.48;;;0.70;93.20;;;;;;5078122;28;20036;-73
2023/03/17 04:30:04;;;;;;;559.38;532.75;;;0.80;93.20;;;;;;5106831;28;20083;-74
2023/03/17 04:32:30;;;;;;;551.75;525.53;;;0.80;93.00;;;;;;5110066;28;20036;-74
2023/03/17 04:34:56;;;;;;;587.70;559.67;;;0.70;92.90;;;;;;5096125;28;20051;-74
2023/03/17 04:37:22;;;;;;;603.03;573.58;;;0.70;92.90;;;;;;5094066;28;20039;-75
2023/03/17 04:39:48;;;;;;;516.53;491.80;;;0.70;92.80;;;;;;5101237;28;20040;-74
2023/03/17 04:42:14;;;;;;;540.85;514.92;;;0.70;92.80;;;;;;5088276;28;20035;-74
2023/03/17 04:44:40;;;;;;;597.38;567.72;;;0.70;93.10;;;;;;5104077;27;20181;-74
2023/03/17 04:47:06;;;;;;;567.33;540.35;;;0.60;93.20;;;;;;5114795;27;20035;-74
2023/03/17 04:49:32;;;;;;;560.25;533.80;;;0.70;93.40;;;;;;5113903;27;20032;-74
2023/03/17 04:51:57;;;;;;;555.17;528.47;;;0.70;93.30;;;;;;5092164;28;20077;-74
2023/03/17 04:54:23;;;;;;;611.88;582.90;;;0.80;93.30;;;;;;5114484;27;20027;-74
2023/03/17 04:56:49;;;;;;;588.33;560.75;;;0.80;93.20;;;;;;5077935;28;20477;-75
2023/03/17 04:59:15;;;;;;;590.58;562.97;;;0.60;93.10;;;;;;5100161;28;20029;-74
2023/03/17 05:01:40;;;;;;;606.30;577.38;;;0.50;93.30;;;;;;5096334;28;20047;-74
2023/03/17 05:04:06;;;;;;;596.33;568.83;;;0.50;93.30;;;;;;5107625;27;20499;-74
2023/03/17 05:06:32;;;;;;;591.30;564.28;;;0.50;93.50;;;;;;5112743;27;20031;-74
2023/03/17 05:08:58;;;;;;;593.30;565.70;;;0.50;93.60;;;;;;5114995;27;20042;-75
2023/03/17 05:11:23;;;;;;;596.55;569.38;;;0.60;93.70;;;;;;5090937;27;20028;-74
2023/03/17 05:13:49;;;;;;;575.97;549.60;;;0.50;93.60;;;;;;5076445;27;20672;-76
2023/03/17 05:16:15;;;;;;;597.45;570.13;;;0.50;93.60;;;;;;5077850;28;20027;-76
2023/03/17 05:18:42;;;;;;;585.35;558.60;;;0.50;93.60;;;;;;5072885;28;20237;-75
2023/03/17 05:21:09;;;;;;;578.38;551.72;;;0.40;93.80;;;;;;5103929;27;20093;-74
2023/03/17 05:23:35;;;;;;;588.83;561.33;;;0.40;94.20;;;;;;5107814;27;20059;-75
2023/03/17 05:26:01;;;;;;;572.83;546.20;;;0.40;93.90;;;;;;5105799;28;20086;-74
2023/03/17 05:28:26;;;;;;;548.00;522.88;;;0.40;93.80;;;;;;5068861;28;20549;-75
2023/03/17 05:30:53;;;;;;;563.47;538.10;;;0.50;94.00;;;;;;5100877;28;20155;-74
2023/03/17 05:33:20;;;;;;;564.42;538.72;;;0.50;93.90;;;;;;5086117;28;20023;-77
2023/03/17 05:35:46;;;;;;;544.75;520.53;;;0.40;94.00;;;;;;5076012;28;20051;-76
2023/03/17 05:38:13;;;;;;;554.75;530.22;;;0.40;94.00;;;;;;5085222;27;20027;-74
2023/03/17 05:40:38;;;;;;;546.95;522.22;;;0.40;93.90;;;;;;5102781;27;20789;-76
2023/03/17 05:43:05;;;;;;;574.50;548.33;;;0.30;93.90;;;;;;5083174;28;20027;-75
2023/03/17 05:45:32;;;;;;;564.60;539.67;;;0.30;94.00;;;;;;5091136;28;20040;-76
2023/03/17 05:47:57;;;;;;;558.63;533.83;;;0.30;94.00;;;;;;5107442;27;20024;-75
2023/03/17 05:50:24;;;;;;;594.20;566.65;;;0.30;94.00;;;;;;5113923;27;20032;-76
2023/03/17 05:52:51;;;;;;;564.78;539.40;;;0.20;94.40;;;;;;5096259;27;20366;-76
2023/03/17 05:55:17;;;;;;;557.78;532.85;;;0.10;94.20;;;;;;5102527;27;20050;-77
2023/03/17 05:57:43;;;;;;;539.35;515.60;;;0.00;94.40;;;;;;5122040;27;20287;-76
2023/03/17 06:00:10;;;;;;;551.35;527.13;;;0.20;94.40;;;;;;5118303;27;20076;-76
2023/03/17 06:02:37;;;;;;;556.15;531.65;;;0.20;94.20;;;;;;5097833;27;20077;-75
2023/03/17 06:05:04;;;;;;;566.60;542.08;;;0.20;94.20;;;;;;5095992;28;20069;-75
2023/03/17 06:07:29;;;;;;;573.38;548.00;;;0.30;94.20;;;;;;5117270;27;20067;-74
2023/03/17 06:09:55;;;;;;;560.30;535.22;;;0.30;94.00;;;;;;5091041;28;20074;-75
2023/03/17 06:12:21;;;;;;;575.22;549.88;;;0.30;94.10;;;;;;5087370;28;20081;-73
2023/03/17 06:14:46;;;;;;;481.23;460.35;;;0.30;94.10;;;;;;5088754;27;20069;-74
2023/03/17 06:17:13;;;;;;;543.72;520.15;;;0.40;94.30;;;;;;5113828;27;20027;-74
2023/03/17 06:19:39;;;;;;;525.90;503.50;;;0.40;94.40;;;;;;5112099;27;20062;-73
2023/03/17 06:22:04;;;;;;;554.03;528.92;;;0.50;94.40;;;;;;5116411;27;20059;-73
2023/03/17 06:24:30;;;;;;;567.65;540.60;;;0.50;94.30;;;;;;5096003;28;20036;-73
2023/03/17 06:26:56;;;;;;;564.75;537.88;;;0.50;94.30;;;;;;5089662;28;20031;-73
2023/03/17 06:29:21;;;;;;;536.10;511.27;;;0.60;94.30;;;;;;5101728;28;20113;-74
2023/03/17 06:31:49;;;;;;;599.75;570.10;;;0.60;94.30;;;;;;5098705;28;20023;-74
2023/03/17 06:34:16;;;;;;;660.83;626.58;;;0.60;94.30;;;;;;5099342;27;20393;-75
2023/03/17 06:36:42;;;;;;;692.38;652.35;;;0.70;94.40;;;;;;5092071;28;20042;-73
2023/03/17 06:39:09;;;;;;;646.33;613.40;;;0.70;94.30;;;;;;5091593;28;20027;-76
2023/03/17 06:41:35;;;;;;;613.05;580.90;;;0.80;94.30;;;;;;5090332;28;20027;-72
2023/03/17 06:44:01;;;;;;;639.72;606.90;;;0.80;94.10;;;;;;5091321;28;20400;-76
2023/03/17 06:46:27;;;;;;;651.35;617.10;;;0.90;94.20;;;;;;5093095;28;20020;-74
2023/03/17 06:48:53;;;;;;;653.60;619.38;;;0.90;94.10;;;;;;5114078;27;20043;-76
2023/03/17 06:51:18;;;;;;;629.00;596.85;;;1.00;94.10;;;;;;5074330;28;20369;-76
2023/03/17 06:53:44;;;;;;;590.95;561.17;;;1.20;93.90;;;;;;5094823;28;20043;-75
2023/03/17 06:56:10;;;;;;;573.30;546.33;;;1.20;93.70;;;;;;5115304;27;20024;-74
2023/03/17 06:58:35;;;;;;;572.00;544.55;;;1.30;93.60;;;;;;5095024;28;20031;-75
2023/03/17 07:01:01;;;;;;;582.35;555.72;;;1.30;93.60;;;;;;5093963;28;20039;-76
2023/03/17 07:03:27;;;;;;;559.38;533.90;;;1.30;93.60;;;;;;5117261;27;20032;-78
2023/03/17 07:05:53;;;;;;;545.58;521.05;;;1.50;93.40;;;;;;5112709;27;20062;-76
2023/03/17 07:08:20;;;;;;;570.05;544.13;;;1.60;93.20;;;;;;5078001;28;20129;-75
2023/03/17 07:10:45;;;;;;;570.90;546.03;;;1.90;92.80;;;;;;5098066;28;20020;-77
2023/03/17 07:13:11;;;;;;;587.92;561.60;;;2.00;92.50;;;;;;5112281;27;20139;-76
2023/03/17 07:15:37;;;;;;;569.70;544.10;;;2.10;92.20;;;;;;5097460;28;20558;-77
2023/03/17 07:18:05;;;;;;;604.28;576.80;;;2.20;92.20;;;;;;5099263;28;20480;-76
2023/03/17 07:20:31;;;;;;;601.00;573.33;;;2.30;91.80;;;;;;5107727;28;20028;-77
2023/03/17 07:22:56;;;;;;;618.15;589.00;;;2.50;91.60;;;;;;5094255;28;20168;-74
2023/03/17 07:25:43;;;;;;;630.60;599.47;;;2.60;91.40;;;;;;5110817;28;20076;-76
2023/03/17 07:28:09;;;;;;;566.47;539.55;;;2.80;90.70;;;;;;5109362;28;20023;-77
2023/03/17 07:30:35;;;;;;;599.13;570.15;;;3.00;90.20;;;;;;5110425;28;20035;-76
2023/03/17 07:33:01;;;;;;;586.65;558.92;;;3.30;89.80;;;;;;5111273;28;20057;-77
2023/03/17 07:35:27;;;;;;;527.45;502.20;;;3.60;89.00;;;;;;5111473;28;20135;-76
2023/03/17 07:37:53;;;;;;;475.65;454.10;;;3.80;87.60;;;;;;5110942;27;20035;-75
2023/03/17 07:40:19;;;;;;;281.58;270.58;;;3.90;86.90;;;;;;5122168;27;20083;-76
2023/03/17 07:42:44;;;;;;;257.05;246.60;;;4.00;85.70;;;;;;5122106;27;20392;-76
2023/03/17 07:45:10;;;;;;;198.52;191.15;;;4.10;85.70;;;;;;5129105;27;20031;-77
2023/03/17 07:47:36;;;;;;;158.98;153.32;;;4.10;84.90;;;;;;5115242;27;20386;-76
2023/03/17 07:50:02;;;;;;;256.60;246.48;;;4.10;84.70;;;;;;5114123;27;20107;-77
2023/03/17 07:52:27;;;;;;;282.50;270.20;;;4.50;85.30;;;;;;5113966;27;20561;-75
2023/03/17 07:54:54;;;;;;;153.27;147.52;;;4.60;82.40;;;;;;5108561;28;20098;-77
2023/03/17 07:57:20;;;;;;;158.95;153.23;;;4.60;82.30;;;;;;5078900;27;20032;-75
2023/03/17 07:59:46;;;;;;;142.23;137.02;;;4.70;81.60;;;;;;5096508;28;20042;-75
2023/03/17 08:02:16;;;;;;;154.93;149.50;;;4.80;81.50;;;;;;5117574;27;20035;-78
2023/03/17 08:04:43;;;;;;;138.75;133.80;;;5.00;81.00;;;;;;5097857;27;20686;-78
2023/03/17 08:07:09;;;;;;;147.82;142.35;;;5.30;81.10;;;;;;5116318;27;20073;-76
2023/03/17 08:09:36;;;;;;;156.90;151.18;;;5.30;80.30;;;;;;5115730;27;20062;-76
2023/03/17 08:12:02;;;;;;;151.75;146.43;;;5.20;79.90;;;;;;5089824;28;20047;-76
2023/03/17 08:14:28;;;;;;;118.53;114.03;;;5.40;81.00;;;;;;5116764;27;20019;-76
2023/03/17 08:16:54;;;;;;;132.38;127.60;;;5.60;80.90;;;;;;5098850;27;20074;-76
2023/03/17 08:19:21;;;;;;;117.57;113.07;;;5.70;78.50;;;;;;5103706;28;20059;-75
2023/03/17 08:21:47;;;;;;;136.27;131.35;;;5.90;78.90;;;;;;5115442;27;20455;-77
2023/03/17 08:24:13;;;;;;;128.30;123.72;;;6.20;78.80;;;;;;5115395;27;20039;-75
2023/03/17 08:26:38;;;;;;;72.55;69.80;;;6.40;78.10;;;;;;5115646;27;20114;-76
2023/03/17 08:29:04;;;;;;;73.22;70.32;;;6.50;76.20;;;;;;5111596;28;20032;-77
2023/03/17 08:31:32;;;;;;;65.38;62.80;;;6.50;76.10;;;;;;5100207;27;20058;-77
2023/03/17 08:33:58;;;;;;;75.63;72.68;;;6.40;75.20;;;;;;5114492;27;20023;-75
2023/03/17 08:36:24;;;;;;;121.45;116.88;;;6.60;75.90;;;;;;5098361;28;20118;-74
2023/03/17 08:38:51;;;;;;;52.95;50.60;;;6.70;74.80;;;;;;5063149;28;20039;-76
2023/03/17 08:41:20;;;;;;;53.88;51.67;;;6.70;73.20;;;;;;5099896;28;20023;-77
2023/03/17 08:43:49;;;;;;;104.55;100.55;;;6.90;73.60;;;;;;5098447;28;20023;-76
2023/03/17 08:46:20;;;;;;;60.83;58.47;;;7.20;72.40;;;;;;5094557;28;20032;-76
2023/03/17 08:48:47;;;;;;;45.47;43.60;;;7.40;71.90;;;;;;5087876;28;20032;-76
2023/03/17 08:51:15;;;;;;;29.10;27.60;;;7.70;72.30;;;;;;5090307;28;20303;-76
2023/03/17 08:53:40;;;;;;;19.42;18.45;;;8.10;69.90;;;;;;5094796;28;20024;-77
2023/03/17 08:56:07;;;;;;;49.08;47.00;;;8.40;69.50;;;;;;5094732;28;20611;-75
2023/03/17 08:58:34;;;;;;;14.07;13.35;;;8.40;70.90;;;;;;5081581;28;20024;-74
2023/03/17 09:01:02;;;;;;;18.08;17.08;;;8.30;68.80;;;;;;5074308;28;20020;-74
2023/03/17 09:03:28;;;;;;;12.77;11.85;;;8.20;69.80;;;;;;5091895;28;20485;-76
2023/03/17 09:05:54;;;;;;;14.32;13.50;;;8.20;68.00;;;;;;5089140;28;20063;-75
2023/03/17 09:08:20;;;;;;;19.80;18.48;;;8.50;68.40;;;;;;5089051;28;20032;-76
2023/03/17 09:10:46;;;;;;;19.40;18.30;;;8.50;68.40;;;;;;5076554;28;20027;-76
2023/03/17 09:13:12;;;;;;;18.52;17.23;;;8.70;68.60;;;;;;5094354;28;20524;-75
2023/03/17 09:15:38;;;;;;;36.53;34.92;;;8.80;68.30;;;;;;5073923;28;20032;-75
2023/03/17 09:18:05;;;;;;;41.00;39.05;;;9.00;67.20;;;;;;5091725;28;20028;-76
2023/03/17 09:20:31;;;;;;;15.80;15.05;;;9.00;65.50;;;;;;5100013;28;20137;-76
2023/03/17 09:22:58;;;;;;;17.80;16.90;;;9.20;63.30;;;;;;5095506;28;20020;-76
2023/03/17 09:25:23;;;;;;;21.77;20.48;;;9.70;65.70;;;;;;5093481;28;20562;-74
2023/03/17 09:27:50;;;;;;;20.63;19.52;;;9.60;64.10;;;;;;5095886;28;20138;-76
2023/03/17 09:30:16;;;;;;;25.52;24.35;;;9.60;65.10;;;;;;5074807;28;20047;-75
2023/03/17 09:32:44;;;;;;;19.23;18.33;;;9.70;64.70;;;;;;5074928;28;20101;-75
2023/03/17 09:35:11;;;;;;;19.02;18.02;;;9.70;64.10;;;;;;5091089;28;20101;-76
2023/03/17 09:37:37;;;;;;;9.63;9.02;;;10.10;63.40;;;;;;5089339;28;20044;-75
2023/03/17 09:40:07;;;;;;;18.67;17.70;;;10.10;59.00;;;;;;5091079;28;20089;-75
2023/03/17 09:42:33;;;;;;;18.35;17.35;;;10.00;61.90;;;;;;5091081;28;20035;-75
2023/03/17 09:45:30;;;;;;;27.33;26.00;;;9.80;61.40;;;;;;5091531;28;20074;-76
2023/03/17 09:48:17;;;;;;;11.55;10.85;;;9.60;60.30;;;;;;5076060;28;20497;-75
2023/03/17 09:50:59;;;;;;;12.18;11.38;;;9.80;62.20;;;;;;5083030;28;20059;-75
2023/03/17 09:53:48;;;;;;;30.17;28.77;;;10.00;62.40;;;;;;5090623;28;20063;-75
2023/03/17 09:56:16;;;;;;;14.50;13.50;;;10.30;62.60;;;;;;5069673;28;20040;-75
2023/03/17 09:59:26;;;;;;;16.30;15.25;;;10.70;61.50;;;;;;5088866;28;20032;-75
2023/03/17 10:01:52;;;;;;;13.77;12.85;;;10.60;60.00;;;;;;5089417;28;20057;-75
2023/03/17 10:04:18;;;;;;;19.38;18.20;;;11.00;60.00;;;;;;5077656;28;20493;-75
2023/03/17 10:06:48;;;;;;;8.65;7.95;;;11.30;60.90;;;;;;5086446;28;20119;-75
2023/03/17 10:09:15;;;;;;;;;;;11.50;58.50;;;;;;5090492;28;20028;-73
2023/03/17 10:11:46;;;;;;;8.88;8.25;;;11.60;57.70;;;;;;5091149;28;20437;-76
2023/03/17 10:14:46;;;;;;;7.75;7.05;;;11.80;59.90;;;;;;5087638;28;20537;-76
2023/03/17 10:17:21;;;;;;;7.93;7.33;;;12.20;57.70;;;;;;5068542;28;20082;-75
2023/03/17 10:20:07;;;;;;;10.15;7.25;;;11.70;55.50;;;;;;5089957;28;20282;-76
2023/03/17 10:22:52;;;;;;;11.88;7.00;;;11.80;57.20;;;;;;5071247;28;20978;-76
2023/03/17 10:25:23;;;;;;;8.43;7.65;;;11.90;54.00;;;;;;5068894;28;20025;-76
2023/03/17 10:28:12;;;;;;;7.22;6.72;;;12.20;52.30;;;;;;5064764;28;20095;-77
2023/03/17 10:30:38;;;;;;;8.43;7.82;;;12.40;54.20;;;;;;5060925;28;20048;-75
2023/03/17 10:33:08;;;;;;;6.75;6.10;;;12.60;53.10;;;;;;5076060;28;20032;-76
2023/03/17 10:35:38;;;;;;;8.52;7.82;;;12.60;52.20;;;;;;5069709;28;20025;-77
2023/03/17 10:38:19;;;;;;;7.43;6.63;;;12.70;52.70;;;;;;5075974;28;20614;-75
2023/03/17 10:41:07;;;;;;;8.40;7.70;;;13.00;51.40;;;;;;5069896;28;20298;-77
2023/03/17 10:43:52;;;;;;;9.32;8.73;;;13.40;52.40;;;;;;5072683;28;20489;-75
2023/03/17 10:46:24;;;;;;;7.93;7.35;;;13.50;50.20;;;;;;5064119;28;20048;-78
2023/03/17 10:49:09;;;;;;;8.20;7.70;;;13.60;51.10;;;;;;5065384;28;20545;-78
2023/03/17 10:51:37;;;;;;;8.43;7.82;;;13.90;53.00;;;;;;5067413;28;20035;-75
2023/03/17 10:54:16;;;;;;;9.07;8.38;;;14.20;51.90;;;;;;5071108;28;20036;-77
2023/03/17 10:56:45;;;;;;;8.52;7.93;;;14.30;49.70;;;;;;5066789;28;20062;-76
2023/03/17 10:59:27;;;;;;;7.15;6.63;;;15.00;50.40;;;;;;5069866;28;20032;-76
2023/03/17 11:01:57;;;;;;;5.63;5.13;;;15.80;48.00;;;;;;5073003;28;20033;-78
2023/03/17 11:04:25;;;;;;;6.80;6.20;;;15.60;46.00;;;;;;5071403;28;20502;-77
2023/03/17 11:06:51;;;;;;;6.15;5.70;;;15.80;48.00;;;;;;5069755;28;20083;-77
2023/03/17 11:09:20;;;;;;;7.93;6.68;;;16.20;47.50;;;;;;5066845;28;20019;-77
2023/03/17 11:12:00;;;;;;;7.35;6.75;;;16.00;45.80;;;;;;5070739;28;20503;-77
2023/03/17 11:14:27;;;;;;;;;;;15.70;47.20;;;;;;5067946;28;20040;-79
2023/03/17 11:17:02;;;;;;;6.55;6.05;;;16.60;46.60;;;;;;5071544;28;19936;-78
2023/03/17 11:20:10;;;;;;;6.63;6.22;;;17.10;44.80;;;;;;5071819;28;20395;-75
2023/03/17 11:22:51;;;;;;;6.43;5.95;;;17.80;44.10;;;;;;5087636;28;20040;-77
2023/03/17 11:25:18;;;;;;;7.03;6.25;;;16.90;41.30;;;;;;5068107;28;20499;-77
2023/03/17 11:28:03;;;;;;;6.78;6.13;;;17.30;43.10;;;;;;5074356;28;20394;-76
2023/03/17 11:30:31;;;;;;;8.95;6.80;;;16.50;42.00;;;;;;5071404;28;20166;-76
2023/03/17 11:33:20;;;;;;;6.50;6.00;;;16.30;43.90;;;;;;5063206;28;20028;-77
2023/03/17 11:35:51;;;;;;;6.70;6.05;;;16.30;44.00;;;;;;5055745;28;20490;-78
2023/03/17 11:38:35;;;;;;;6.15;5.65;;;16.50;42.30;;;;;;5055520;28;20025;-79
2023/03/17 11:41:07;;;;;;;6.43;5.95;;;16.60;42.20;;;;;;5056649;28;20081;-76
2023/03/17 11:44:06;;;;;;;7.05;6.55;;;16.80;41.70;;;;;;5056294;28;20518;-80
2023/03/17 11:46:51;;;;;;;6.28;5.68;;;17.40;40.20;;;;;;5053135;28;20047;-79
2023/03/17 11:49:37;;;;;;;6.43;5.82;;;17.60;38.00;;;;;;5054632;28;20049;-77
2023/03/17 11:52:15;;;;;;;6.18;5.68;;;18.10;39.70;;;;;;5056003;28;20032;-78
2023/03/17 11:54:44;;;;;;;6.75;6.15;;;17.90;36.80;;;;;;5054357;28;20480;-78
2023/03/17 11:57:34;;;;;;;6.80;6.30;;;17.40;39.20;;;;;;5055716;28;20166;-78
2023/03/17 12:00:09;;;;;;;6.43;5.93;;;17.90;40.20;;;;;;5055395;28;20036;-77
2023/03/17 12:02:37;;;;;;;7.63;5.63;;;17.70;40.20;;;;;;5059129;28;20028;-77
2023/03/17 12:05:11;;;;;;;5.07;4.72;;;18.00;38.80;;;;;;5055064;28;20040;-77
2023/03/17 12:07:54;;;;;;;5.72;5.20;;;18.20;38.00;;;;;;5056575;28;20029;-76
2023/03/17 12:10:26;;;;;;;6.78;4.90;;;18.20;35.00;;;;;;5053218;28;20120;-77
2023/03/17 12:13:00;;;;;;;4.15;3.78;;;18.70;34.00;;;;;;5059170;28;20091;-77
2023/03/17 12:15:51;;;;;;;5.10;4.70;;;18.50;33.30;;;;;;5055059;28;20029;-77
2023/03/17 12:18:20;;;;;;;4.85;4.45;;;19.00;34.40;;;;;;5056880;28;20071;-76
2023/03/17 12:20:54;;;;;;;5.43;4.50;;;18.20;32.70;;;;;;5058152;28;20048;-76
2023/03/17 12:23:30;;;;;;;5.57;5.18;;;17.90;35.40;;;;;;5058293;28;20020;-76
2023/03/17 12:26:15;;;;;;;5.97;5.57;;;17.80;38.40;;;;;;5057300;28;20112;-76
2023/03/17 12:28:57;;;;;;;5.80;5.30;;;18.10;35.80;;;;;;5050410;28;20060;-77
2023/03/17 12:31:30;;;;;;;6.07;5.55;;;18.30;35.30;;;;;;5053227;28;20029;-77
2023/03/17 12:34:20;;;;;;;5.57;5.13;;;18.70;35.00;;;;;;5053211;28;20033;-76
2023/03/17 12:36:48;;;;;;;5.80;5.30;;;19.10;33.00;;;;;;5051102;28;20490;-76
2023/03/17 12:39:17;;;;;;;5.45;4.95;;;19.20;35.00;;;;;;5052289;28;20029;-76
2023/03/17 12:41:48;;;;;;;4.63;4.18;;;19.50;32.60;;;;;;5056176;28;20111;-77
2023/03/17 12:45:01;;;;;;;4.25;3.95;;;18.80;32.40;;;;;;5054826;28;20017;-76
2023/03/17 12:47:51;;;;;;;5.57;4.38;;;18.50;33.80;;;;;;5056387;28;20060;-76
2023/03/17 12:51:05;;;;;;;4.80;4.40;;;18.50;33.60;;;;;;5055257;28;20053;-76